Time;durP1;ratioP1;P1;durP2;ratioP2;P2;SDS_P1;SDS_P2;PMS_P1;PMS_P2;Temp;Humidity;BMP_temperature;BMP_pressure;BME280_temperature;BME280_humidity;BME280_pressure;Samples;Min_cycle;Max_cycle;Signal;HPM_P1;HPM_P2
2023/07/14 00:02:05;;;;;;;3.53;2.60;;;25.40;86.10;;;;;;6247940;27;89326;-70
2023/07/14 00:05:14;;;;;;;3.30;2.75;;;25.40;86.10;;;;;;6249950;27;89404;-70
2023/07/14 00:08:18;;;;;;;3.30;2.60;;;25.30;86.10;;;;;;6240931;27;90867;-70
2023/07/14 00:11:24;;;;;;;3.08;2.70;;;25.30;86.10;;;;;;6235267;27;89076;-70
2023/07/14 00:14:26;;;;;;;4.75;2.72;;;25.30;86.00;;;;;;6236600;27;89648;-70
2023/07/14 00:17:30;;;;;;;3.72;2.65;;;25.30;85.90;;;;;;6238685;27;89104;-69
2023/07/14 00:20:33;;;;;;;4.43;2.72;;;25.30;85.90;;;;;;6243057;27;88778;-70
2023/07/14 00:23:35;;;;;;;3.40;2.65;;;25.30;85.90;;;;;;6250392;27;89515;-70
2023/07/14 00:26:40;;;;;;;2.67;2.45;;;25.30;85.90;;;;;;6240869;27;89009;-70
2023/07/14 00:29:42;;;;;;;3.67;2.83;;;25.20;85.80;;;;;;6250969;27;90230;-69
2023/07/14 00:32:45;;;;;;;3.00;2.60;;;25.30;86.00;;;;;;6251934;27;87875;-69
2023/07/14 00:35:48;;;;;;;4.05;2.50;;;25.20;86.00;;;;;;6244771;28;89110;-70
2023/07/14 00:38:50;;;;;;;4.15;3.10;;;25.30;86.10;;;;;;6246515;27;88899;-70
2023/07/14 00:41:54;;;;;;;4.55;3.65;;;25.20;86.10;;;;;;6242800;27;89416;-70
2023/07/14 00:44:57;;;;;;;4.65;3.63;;;25.20;86.30;;;;;;6243385;27;87970;-70
2023/07/14 00:48:03;;;;;;;3.30;2.83;;;25.20;86.50;;;;;;6245128;27;89170;-69
2023/07/14 00:51:12;;;;;;;4.15;2.95;;;25.20;86.40;;;;;;6239318;27;88794;-70
2023/07/14 00:54:53;;;;;;;3.92;3.13;;;25.20;86.30;;;;;;6246512;27;89360;-69
2023/07/14 00:57:58;;;;;;;5.05;3.13;;;25.20;86.30;;;;;;6252895;27;89354;-70
2023/07/14 01:01:02;;;;;;;4.47;2.95;;;25.20;86.20;;;;;;6249935;27;90217;-69
2023/07/14 01:04:04;;;;;;;3.15;2.53;;;25.20;86.20;;;;;;6260201;27;89010;-73
2023/07/14 01:07:07;;;;;;;5.05;2.83;;;25.20;86.10;;;;;;6248985;27;88962;-70
2023/07/14 01:10:13;;;;;;;2.90;2.60;;;25.20;86.00;;;;;;6249325;27;89055;-70
2023/07/14 01:13:18;;;;;;;3.65;2.80;;;25.20;86.00;;;;;;6243219;27;89081;-69
2023/07/14 01:16:22;;;;;;;4.38;2.60;;;25.20;85.90;;;;;;6247287;27;89484;-71
2023/07/14 01:19:32;;;;;;;4.32;3.15;;;25.20;85.80;;;;;;6252693;27;88086;-70
2023/07/14 01:22:43;;;;;;;3.30;2.60;;;25.20;85.80;;;;;;6236761;27;88455;-71
2023/07/14 01:25:58;;;;;;;3.22;2.50;;;25.20;85.80;;;;;;6248995;27;87084;-71
2023/07/14 01:29:03;;;;;;;3.72;2.85;;;25.20;85.90;;;;;;6248967;27;89070;-71
2023/07/14 01:32:17;;;;;;;3.00;2.70;;;25.20;85.90;;;;;;6251997;27;90051;-70
2023/07/14 01:35:22;;;;;;;4.20;2.70;;;25.20;86.10;;;;;;6252040;27;89092;-70
2023/07/14 01:38:24;;;;;;;3.03;2.72;;;25.20;86.20;;;;;;6251899;27;88012;-70
2023/07/14 01:41:26;;;;;;;3.00;2.70;;;25.20;86.30;;;;;;6252631;27;89757;-70
2023/07/14 01:44:31;;;;;;;3.65;2.92;;;25.10;86.20;;;;;;6249835;27;89380;-70
2023/07/14 01:47:36;;;;;;;4.90;3.13;;;25.10;86.20;;;;;;6250368;27;89197;-71
2023/07/14 01:50:44;;;;;;;3.13;2.60;;;25.10;86.20;;;;;;6249467;27;89437;-70
2023/07/14 01:53:52;;;;;;;2.92;2.40;;;25.20;86.30;;;;;;6243199;27;88304;-70
2023/07/14 01:56:56;;;;;;;3.03;2.60;;;25.20;86.20;;;;;;6249992;27;89405;-70
2023/07/14 02:00:05;;;;;;;4.15;2.63;;;25.10;87.10;;;;;;6256556;27;89047;-70
2023/07/14 02:03:10;;;;;;;3.28;2.70;;;25.20;86.30;;;;;;6245118;27;90008;-71
2023/07/14 02:06:12;;;;;;;4.30;3.28;;;25.10;86.10;;;;;;6247324;27;89106;-70
2023/07/14 02:09:18;;;;;;;2.92;2.33;;;25.10;86.10;;;;;;6253503;27;89405;-71
2023/07/14 02:12:27;;;;;;;2.95;2.58;;;25.10;85.90;;;;;;6247490;27;89287;-71
2023/07/14 02:15:33;;;;;;;3.28;2.50;;;25.10;85.90;;;;;;6251647;27;89143;-70
2023/07/14 02:18:37;;;;;;;4.30;2.45;;;25.00;85.60;;;;;;6257361;27;88976;-71
2023/07/14 02:21:39;;;;;;;2.72;2.53;;;25.00;85.40;;;;;;6243246;27;89969;-71
2023/07/14 02:24:41;;;;;;;6.25;3.70;;;25.00;85.50;;;;;;6251787;27;88339;-70
2023/07/14 02:27:44;;;;;;;3.67;2.78;;;25.00;85.90;;;;;;6245817;27;89061;-71
2023/07/14 02:30:51;;;;;;;2.55;2.20;;;25.00;85.90;;;;;;6255731;27;88132;-70
2023/07/14 02:33:54;;;;;;;3.00;2.20;;;25.00;85.90;;;;;;6254185;27;90383;-71
2023/07/14 02:36:58;;;;;;;2.78;2.45;;;25.00;86.00;;;;;;6246963;27;89701;-70
2023/07/14 02:40:04;;;;;;;5.20;2.72;;;25.00;86.00;;;;;;6249102;27;89421;-70
2023/07/14 02:43:08;;;;;;;3.05;2.45;;;25.00;85.90;;;;;;6241593;27;88206;-70
2023/07/14 02:46:15;;;;;;;4.25;2.47;;;25.00;85.50;;;;;;6256155;27;89908;-70
2023/07/14 02:49:18;;;;;;;5.40;2.95;;;25.00;85.20;;;;;;6257222;27;88875;-71
2023/07/14 02:52:19;;;;;;;3.40;2.45;;;25.00;85.20;;;;;;6250036;27;89144;-70
2023/07/14 02:55:21;;;;;;;2.67;2.25;;;25.00;85.00;;;;;;6246479;27;88245;-70
2023/07/14 02:58:24;;;;;;;2.75;2.47;;;25.00;84.90;;;;;;6246663;27;89117;-70
2023/07/14 03:01:29;;;;;;;2.60;2.33;;;25.00;84.70;;;;;;6252695;27;89001;-70
2023/07/14 03:04:34;;;;;;;2.58;2.20;;;24.90;84.40;;;;;;6256852;27;89981;-70
2023/07/14 03:07:36;;;;;;;3.00;2.20;;;25.00;84.40;;;;;;6257170;27;87867;-70
2023/07/14 03:10:38;;;;;;;3.05;2.13;;;25.00;84.30;;;;;;6256518;27;89086;-70
2023/07/14 03:13:40;;;;;;;3.30;2.35;;;24.90;84.10;;;;;;6243889;27;89330;-70
2023/07/14 03:16:43;;;;;;;4.38;2.50;;;25.00;84.00;;;;;;6253354;27;88982;-70
2023/07/14 03:19:45;;;;;;;2.53;2.20;;;24.90;84.10;;;;;;6254034;27;88073;-70
2023/07/14 03:22:47;;;;;;;2.67;2.40;;;24.90;84.20;;;;;;6252339;27;89192;-70
2023/07/14 03:25:53;;;;;;;3.28;2.30;;;24.90;84.10;;;;;;6256721;27;88334;-69
2023/07/14 03:28:55;;;;;;;3.35;2.33;;;24.90;84.20;;;;;;6257661;27;89125;-69
2023/07/14 03:31:59;;;;;;;5.57;2.63;;;24.90;84.10;;;;;;6264902;27;89138;-69
2023/07/14 03:35:00;;;;;;;3.75;2.38;;;24.90;83.90;;;;;;6254839;28;89002;-69
2023/07/14 03:38:03;;;;;;;4.35;2.60;;;24.90;83.80;;;;;;6246323;27;89095;-69
2023/07/14 03:41:05;;;;;;;5.10;2.50;;;24.90;83.80;;;;;;6257159;27;91237;-70
2023/07/14 03:44:07;;;;;;;4.22;2.50;;;24.90;83.80;;;;;;6266397;27;89195;-70
2023/07/14 03:47:10;;;;;;;3.42;2.40;;;24.90;83.90;;;;;;6248892;27;89399;-69
2023/07/14 03:50:13;;;;;;;2.65;2.42;;;24.90;84.00;;;;;;6251191;27;89285;-69
2023/07/14 03:53:14;;;;;;;3.13;2.50;;;24.90;84.00;;;;;;6250555;27;89534;-69
2023/07/14 03:56:16;;;;;;;3.40;2.50;;;24.90;84.20;;;;;;6252736;27;88332;-69
2023/07/14 03:59:18;;;;;;;2.95;2.40;;;24.90;84.30;;;;;;6259274;27;89138;-69
2023/07/14 04:02:22;;;;;;;3.28;2.55;;;24.80;84.30;;;;;;6254785;27;89018;-69
2023/07/14 04:05:24;;;;;;;3.85;2.50;;;24.80;84.30;;;;;;6241073;27;89999;-69
2023/07/14 04:08:26;;;;;;;3.53;2.45;;;24.80;84.20;;;;;;6247977;27;89023;-69
2023/07/14 04:11:28;;;;;;;3.60;2.72;;;24.80;84.40;;;;;;6248395;27;89145;-70
2023/07/14 04:14:30;;;;;;;2.97;2.35;;;24.80;84.50;;;;;;6243308;27;89188;-69
2023/07/14 04:17:33;;;;;;;2.92;2.60;;;24.90;84.70;;;;;;6253287;27;89059;-69
2023/07/14 04:20:35;;;;;;;4.57;2.67;;;24.80;84.70;;;;;;6250747;27;88981;-70
2023/07/14 04:23:39;;;;;;;3.75;3.00;;;24.80;84.90;;;;;;6254514;27;89024;-70
2023/07/14 04:26:41;;;;;;;3.17;2.58;;;24.80;85.10;;;;;;6232167;27;88405;-70
2023/07/14 04:29:43;;;;;;;3.08;2.35;;;24.80;85.30;;;;;;6255290;27;89090;-70
2023/07/14 04:32:47;;;;;;;3.45;2.60;;;24.80;85.40;;;;;;6255212;27;88231;-70
2023/07/14 04:35:51;;;;;;;3.60;2.90;;;24.80;85.70;;;;;;6255607;27;89997;-69
2023/07/14 04:39:04;;;;;;;3.38;2.60;;;24.80;86.00;;;;;;6256034;27;89164;-70
2023/07/14 04:42:06;;;;;;;4.20;2.70;;;24.80;86.30;;;;;;6247621;27;88730;-70
2023/07/14 04:45:11;;;;;;;4.47;2.85;;;24.80;86.50;;;;;;6235869;27;89043;-69
2023/07/14 04:48:17;;;;;;;3.83;2.88;;;24.80;86.70;;;;;;6243765;27;89192;-69
2023/07/14 04:51:19;;;;;;;3.75;2.85;;;24.80;86.90;;;;;;6239928;27;90426;-70
2023/07/14 04:54:23;;;;;;;2.88;2.58;;;24.80;86.90;;;;;;6252522;27;89056;-70
2023/07/14 04:57:25;;;;;;;4.90;3.22;;;24.80;87.00;;;;;;6262401;27;88355;-70
2023/07/14 05:00:27;;;;;;;5.68;3.47;;;24.80;87.20;;;;;;6246254;27;87945;-70
2023/07/14 05:03:31;;;;;;;7.97;4.13;;;24.80;87.40;;;;;;6242982;27;89068;-69
2023/07/14 05:06:33;;;;;;;7.32;4.20;;;24.80;87.60;;;;;;6263254;27;90027;-68
2023/07/14 05:09:35;;;;;;;5.63;3.83;;;24.80;87.80;;;;;;6254944;27;89043;-69
2023/07/14 05:12:37;;;;;;;6.03;4.15;;;24.80;87.90;;;;;;6265615;27;90130;-68
2023/07/14 05:15:43;;;;;;;6.65;4.25;;;24.80;88.50;;;;;;6250336;27;89559;-68
2023/07/14 05:18:46;;;;;;;6.78;4.40;;;24.80;88.80;;;;;;6248880;27;89104;-69
2023/07/14 05:21:48;;;;;;;6.93;3.90;;;24.80;88.80;;;;;;6253941;27;88250;-69
2023/07/14 05:24:50;;;;;;;5.90;4.25;;;24.80;88.60;;;;;;6245395;27;89037;-68
2023/07/14 05:27:52;;;;;;;7.60;3.97;;;24.80;88.60;;;;;;6250420;27;88239;-69
2023/07/14 05:30:55;;;;;;;5.32;3.95;;;24.80;88.60;;;;;;6251266;27;89120;-68
2023/07/14 05:33:58;;;;;;;5.68;3.63;;;24.80;88.60;;;;;;6242625;27;89025;-68
2023/07/14 05:37:00;;;;;;;4.38;3.72;;;24.90;88.60;;;;;;6258331;27;89963;-68
2023/07/14 05:40:04;;;;;;;8.38;4.10;;;24.80;88.60;;;;;;6255668;27;89107;-68
2023/07/14 05:43:06;;;;;;;6.22;3.92;;;24.80;88.60;;;;;;6257499;27;89239;-68
2023/07/14 05:46:08;;;;;;;7.28;4.45;;;24.80;88.70;;;;;;6258980;27;89085;-68
2023/07/14 05:49:12;;;;;;;5.85;3.90;;;24.80;88.70;;;;;;6258670;27;89330;-68
2023/07/14 05:52:14;;;;;;;4.57;3.85;;;24.80;88.70;;;;;;6259039;28;89068;-68
2023/07/14 05:55:16;;;;;;;5.18;3.67;;;24.80;88.80;;;;;;6246743;27;90728;-68
2023/07/14 05:58:18;;;;;;;5.40;3.65;;;24.90;88.90;;;;;;6237871;27;88252;-69
2023/07/14 06:01:20;;;;;;;4.93;3.70;;;24.90;89.00;;;;;;6245518;27;87989;-68
2023/07/14 06:04:23;;;;;;;5.20;3.97;;;24.90;88.90;;;;;;6258985;27;89084;-68
2023/07/14 06:07:25;;;;;;;4.88;3.50;;;24.90;88.90;;;;;;6249606;27;90039;-69
2023/07/14 06:10:27;;;;;;;6.57;3.50;;;24.90;88.90;;;;;;6253002;27;89623;-69
2023/07/14 06:13:29;;;;;;;5.65;3.83;;;24.90;89.00;;;;;;6252655;27;89062;-68
2023/07/14 06:16:31;;;;;;;5.80;3.78;;;24.90;89.10;;;;;;6245596;27;89153;-68
2023/07/14 06:19:35;;;;;;;5.20;3.50;;;24.90;89.10;;;;;;6254389;27;89400;-69
2023/07/14 06:22:37;;;;;;;4.82;3.42;;;24.90;89.10;;;;;;6257275;27;89407;-69
2023/07/14 06:25:39;;;;;;;5.13;3.30;;;24.90;89.10;;;;;;6251785;27;89105;-69
2023/07/14 06:28:42;;;;;;;4.07;3.30;;;24.90;89.20;;;;;;6258522;27;89756;-69
2023/07/14 06:31:44;;;;;;;5.88;3.53;;;24.90;89.30;;;;;;6244498;27;89376;-69
2023/07/14 06:34:48;;;;;;;4.53;3.58;;;24.90;89.20;;;;;;6256144;27;89033;-69
2023/07/14 06:37:50;;;;;;;5.32;3.40;;;24.90;89.20;;;;;;6271214;27;88911;-68
2023/07/14 06:40:56;;;;;;;3.50;3.20;;;24.90;89.30;;;;;;6257576;27;89478;-68
2023/07/14 06:44:00;;;;;;;4.93;3.63;;;24.90;89.30;;;;;;6237973;27;89119;-68
2023/07/14 06:47:02;;;;;;;4.30;3.33;;;24.90;89.30;;;;;;6249749;27;88745;-68
2023/07/14 06:50:07;;;;;;;4.28;3.20;;;24.90;89.40;;;;;;6257817;27;89714;-69
2023/07/14 06:53:09;;;;;;;3.70;2.90;;;25.00;89.50;;;;;;6250256;27;89283;-68
2023/07/14 06:56:11;;;;;;;3.45;3.13;;;24.90;89.50;;;;;;6259066;27;89159;-68
2023/07/14 06:59:13;;;;;;;3.55;3.25;;;24.90;89.60;;;;;;6241473;27;88486;-68
2023/07/14 07:02:15;;;;;;;4.43;3.33;;;24.90;89.60;;;;;;6248305;27;89411;-68
2023/07/14 07:05:18;;;;;;;4.13;2.97;;;25.00;89.60;;;;;;6256642;27;88029;-68
2023/07/14 07:08:20;;;;;;;3.47;3.08;;;25.00;89.60;;;;;;6257050;27;90125;-68
2023/07/14 07:11:22;;;;;;;4.38;2.70;;;25.00;89.70;;;;;;6271637;27;89087;-68
2023/07/14 07:14:24;;;;;;;3.30;2.97;;;25.00;89.80;;;;;;6269586;27;89411;-68
2023/07/14 07:17:26;;;;;;;3.97;2.95;;;25.00;89.80;;;;;;6254479;27;89238;-68
2023/07/14 07:20:30;;;;;;;3.72;3.10;;;24.90;89.70;;;;;;6254168;27;89064;-69
2023/07/14 07:23:32;;;;;;;4.13;2.90;;;25.00;89.80;;;;;;6270517;27;89099;-69
2023/07/14 07:26:34;;;;;;;4.15;2.95;;;25.00;89.80;;;;;;6255004;27;89506;-69
2023/07/14 07:29:36;;;;;;;3.30;2.97;;;25.00;89.80;;;;;;6255118;27;87224;-68
2023/07/14 07:32:40;;;;;;;4.10;3.10;;;25.00;89.80;;;;;;6254884;27;89454;-68
2023/07/14 07:35:43;;;;;;;3.63;3.10;;;25.00;89.80;;;;;;6255871;27;88006;-68
2023/07/14 07:38:47;;;;;;;4.22;3.42;;;25.00;89.90;;;;;;6254940;27;90024;-68
2023/07/14 07:41:49;;;;;;;4.03;3.00;;;25.00;90.00;;;;;;6255964;27;89067;-68
2023/07/14 07:44:51;;;;;;;2.78;2.55;;;25.00;90.00;;;;;;6257118;27;89184;-68
2023/07/14 07:47:53;;;;;;;3.33;2.60;;;25.00;90.10;;;;;;6244980;27;89180;-68
2023/07/14 07:50:56;;;;;;;3.15;2.78;;;25.00;90.20;;;;;;6254577;27;89326;-68
2023/07/14 07:53:58;;;;;;;3.75;2.88;;;25.00;90.20;;;;;;6250153;27;88361;-68
2023/07/14 07:57:00;;;;;;;3.10;2.75;;;25.00;90.20;;;;;;6248811;27;89081;-69
2023/07/14 08:00:03;;;;;;;3.25;2.70;;;25.00;90.10;;;;;;6245376;27;88759;-68
2023/07/14 08:03:05;;;;;;;3.20;2.88;;;25.00;90.10;;;;;;6256804;28;89152;-68
2023/07/14 08:06:08;;;;;;;3.20;2.90;;;25.00;90.10;;;;;;6256237;27;89334;-68
2023/07/14 08:09:12;;;;;;;2.90;2.60;;;25.00;90.10;;;;;;6254955;27;90382;-68
2023/07/14 08:12:14;;;;;;;4.13;2.70;;;25.00;90.10;;;;;;6235062;27;89322;-68
2023/07/14 08:15:16;;;;;;;3.90;2.92;;;25.10;90.20;;;;;;6241868;27;89105;-69
2023/07/14 08:18:18;;;;;;;3.17;2.88;;;25.10;90.20;;;;;;6262530;27;89053;-68
2023/07/14 08:21:22;;;;;;;3.70;2.95;;;25.00;90.20;;;;;;6235064;28;89303;-69
2023/07/14 08:24:24;;;;;;;5.60;3.30;;;25.00;90.20;;;;;;6249880;27;89065;-68
2023/07/14 08:27:26;;;;;;;4.10;2.90;;;25.00;90.30;;;;;;6233326;27;87957;-69
2023/07/14 08:30:30;;;;;;;3.33;2.53;;;25.00;90.30;;;;;;6254908;27;88272;-68
2023/07/14 08:33:32;;;;;;;3.05;2.75;;;25.00;90.30;;;;;;6255164;27;89564;-69
2023/07/14 08:36:35;;;;;;;3.67;2.80;;;25.00;90.40;;;;;;6252768;27;89295;-68
2023/07/14 08:39:37;;;;;;;3.20;2.72;;;25.00;90.50;;;;;;6253839;27;90163;-68
2023/07/14 08:42:47;;;;;;;3.28;2.80;;;25.00;90.50;;;;;;6255093;27;89189;-69
2023/07/14 08:45:56;;;;;;;2.58;2.38;;;25.00;90.50;;;;;;6255269;27;89183;-68
2023/07/14 08:49:06;;;;;;;2.92;2.40;;;25.00;90.90;;;;;;6251100;27;89099;-68
2023/07/14 08:52:18;;;;;;;2.97;2.65;;;25.00;90.50;;;;;;6247981;27;89633;-68
2023/07/14 08:55:23;;;;;;;2.80;2.60;;;25.10;90.50;;;;;;6255370;27;89050;-69
2023/07/14 08:58:28;;;;;;;2.50;2.30;;;25.00;90.40;;;;;;6251885;27;89732;-69
2023/07/14 09:01:37;;;;;;;4.15;2.70;;;25.10;90.40;;;;;;6236196;27;88361;-68
2023/07/14 09:04:41;;;;;;;3.17;2.58;;;25.10;90.50;;;;;;6249050;27;90095;-69
2023/07/14 09:07:45;;;;;;;2.72;2.50;;;25.10;90.50;;;;;;6252143;27;89049;-68
2023/07/14 09:10:58;;;;;;;2.55;2.35;;;25.00;90.50;;;;;;6245330;27;90084;-69
2023/07/14 09:14:08;;;;;;;3.15;2.80;;;25.10;90.50;;;;;;6253236;27;89263;-68
2023/07/14 09:17:20;;;;;;;3.20;2.65;;;25.10;90.60;;;;;;6252160;27;89022;-68
2023/07/14 09:20:45;;;;;;;3.40;2.70;;;25.10;90.60;;;;;;6249425;27;88994;-69
2023/07/14 09:24:13;;;;;;;3.22;2.67;;;25.10;90.60;;;;;;6246790;27;89769;-68
2023/07/14 09:27:22;;;;;;;2.80;2.50;;;25.10;90.60;;;;;;6243189;27;89142;-68
2023/07/14 09:30:26;;;;;;;3.58;2.55;;;25.00;90.60;;;;;;6239006;27;89043;-68
2023/07/14 09:33:30;;;;;;;3.63;2.60;;;25.00;90.60;;;;;;6245545;27;88667;-68
2023/07/14 09:36:35;;;;;;;3.47;2.70;;;25.10;90.70;;;;;;6253848;27;89148;-69
2023/07/14 09:39:45;;;;;;;3.35;2.35;;;25.10;90.70;;;;;;6249250;27;89037;-68
2023/07/14 09:42:51;;;;;;;3.00;2.70;;;25.10;90.70;;;;;;6243100;27;90409;-68
2023/07/14 09:45:55;;;;;;;3.20;2.42;;;25.10;90.70;;;;;;6231445;27;88030;-68
2023/07/14 09:49:05;;;;;;;2.63;2.42;;;25.10;90.70;;;;;;6252434;27;89635;-69
2023/07/14 09:52:14;;;;;;;2.85;2.53;;;25.10;90.60;;;;;;6254043;27;88346;-69
2023/07/14 09:55:19;;;;;;;3.22;2.50;;;25.10;90.70;;;;;;6244403;27;89047;-69
2023/07/14 09:58:25;;;;;;;3.35;2.70;;;25.10;90.70;;;;;;6251449;27;88847;-69
2023/07/14 10:01:29;;;;;;;2.78;2.22;;;25.10;90.70;;;;;;6240371;27;89174;-68
2023/07/14 10:04:36;;;;;;;3.08;2.60;;;25.10;90.70;;;;;;6240383;27;88324;-68
2023/07/14 10:07:41;;;;;;;3.38;2.80;;;25.10;90.70;;;;;;6252579;27;87977;-68
2023/07/14 10:10:45;;;;;;;2.83;2.35;;;25.10;90.70;;;;;;6241189;27;88883;-68
2023/07/14 10:13:54;;;;;;;2.67;2.47;;;25.10;90.70;;;;;;6240725;27;90058;-68
2023/07/14 10:16:58;;;;;;;3.10;2.60;;;25.10;90.70;;;;;;6247990;27;89721;-68
2023/07/14 10:20:04;;;;;;;2.63;2.33;;;25.10;90.70;;;;;;6242541;27;89254;-68
2023/07/14 10:23:14;;;;;;;4.32;3.00;;;25.10;90.70;;;;;;6249397;27;89067;-68
2023/07/14 10:26:17;;;;;;;2.50;2.30;;;25.10;90.70;;;;;;6250018;27;89101;-68
2023/07/14 10:29:21;;;;;;;2.85;2.38;;;25.10;90.70;;;;;;6258577;27;89417;-68
2023/07/14 10:32:29;;;;;;;2.40;2.20;;;25.10;90.70;;;;;;6249821;27;89445;-68
2023/07/14 10:35:35;;;;;;;2.53;2.25;;;25.10;90.60;;;;;;6253298;27;88868;-69
2023/07/14 10:38:43;;;;;;;2.75;2.10;;;25.10;90.60;;;;;;6252953;27;88123;-68
2023/07/14 10:41:47;;;;;;;2.50;2.30;;;25.20;90.70;;;;;;6250237;27;89444;-68
2023/07/14 10:44:51;;;;;;;3.40;2.47;;;25.10;90.60;;;;;;6255293;27;90415;-68
2023/07/14 10:47:55;;;;;;;3.72;2.55;;;25.10;90.60;;;;;;6257795;27;89082;-68
2023/07/14 10:51:02;;;;;;;2.50;2.30;;;25.10;90.60;;;;;;6246458;27;89076;-68
2023/07/14 10:54:11;;;;;;;2.80;2.33;;;25.20;90.60;;;;;;6253895;27;89233;-69
2023/07/14 10:57:30;;;;;;;3.20;2.67;;;25.10;90.60;;;;;;6254795;27;89156;-69
2023/07/14 11:00:37;;;;;;;2.65;2.40;;;25.10;90.60;;;;;;6257955;27;89240;-69
2023/07/14 11:03:44;;;;;;;2.90;2.55;;;25.20;90.70;;;;;;6254749;27;89524;-69
2023/07/14 11:06:49;;;;;;;2.60;2.40;;;25.10;90.60;;;;;;6246874;27;88408;-69
2023/07/14 11:09:51;;;;;;;2.92;2.55;;;25.10;90.60;;;;;;6256956;27;88183;-69
2023/07/14 11:13:01;;;;;;;2.45;2.15;;;25.10;90.60;;;;;;6257502;27;89217;-69
2023/07/14 11:16:09;;;;;;;4.63;2.47;;;25.10;90.60;;;;;;6246461;27;88965;-68
2023/07/14 11:19:17;;;;;;;3.00;2.40;;;25.10;90.60;;;;;;6247751;27;89038;-69
2023/07/14 11:22:33;;;;;;;2.67;2.38;;;25.10;90.60;;;;;;6256761;27;89075;-69
2023/07/14 11:25:44;;;;;;;2.47;2.28;;;25.20;90.70;;;;;;6254211;27;89060;-69
2023/07/14 11:28:53;;;;;;;2.75;2.30;;;25.10;90.60;;;;;;6252461;27;90123;-69
2023/07/14 11:31:58;;;;;;;2.67;2.30;;;25.20;90.60;;;;;;6248017;27;89081;-69
2023/07/14 11:35:08;;;;;;;3.58;2.60;;;25.10;90.60;;;;;;6244189;27;89059;-69
2023/07/14 11:38:26;;;;;;;3.78;2.78;;;25.20;90.60;;;;;;6256780;27;87201;-68
2023/07/14 11:41:29;;;;;;;3.88;2.65;;;25.20;90.50;;;;;;6247160;27;89093;-69
2023/07/14 11:44:32;;;;;;;2.75;2.30;;;25.20;90.50;;;;;;6247610;27;89092;-69
2023/07/14 11:47:38;;;;;;;2.38;2.17;;;25.20;90.50;;;;;;6254973;28;90100;-69
2023/07/14 11:50:40;;;;;;;2.83;2.30;;;25.20;90.50;;;;;;6249397;27;89089;-68
2023/07/14 11:54:01;;;;;;;2.65;2.15;;;25.20;90.40;;;;;;6252629;27;90499;-68
2023/07/14 11:57:08;;;;;;;2.92;2.10;;;25.20;90.40;;;;;;6251662;27;88678;-69
2023/07/14 12:00:23;;;;;;;3.00;2.70;;;25.20;90.50;;;;;;6245257;27;89050;-68
2023/07/14 12:03:30;;;;;;;2.58;2.30;;;25.20;90.50;;;;;;6256393;27;89374;-69
2023/07/14 12:06:49;;;;;;;2.85;2.38;;;25.20;90.50;;;;;;6256328;27;89232;-68
2023/07/14 12:10:03;;;;;;;2.58;2.17;;;25.20;90.50;;;;;;6233528;27;88285;-68
2023/07/14 12:13:27;;;;;;;2.63;2.05;;;25.20;90.50;;;;;;6231693;27;89251;-68
2023/07/14 12:16:47;;;;;;;2.13;1.92;;;25.10;90.50;;;;;;6245284;28;89123;-68
2023/07/14 12:19:53;;;;;;;2.25;2.00;;;25.20;90.50;;;;;;6249301;27;89327;-68
2023/07/14 12:23:26;;;;;;;2.63;2.25;;;25.20;90.50;;;;;;6255747;27;89133;-69
2023/07/14 12:26:35;;;;;;;2.47;2.00;;;25.20;90.50;;;;;;6219503;27;91286;-68
2023/07/14 12:29:37;;;;;;;2.55;2.10;;;25.20;90.40;;;;;;6247772;27;89109;-68
2023/07/14 12:32:42;;;;;;;2.90;2.20;;;25.20;90.30;;;;;;6253162;27;89342;-69
2023/07/14 12:35:44;;;;;;;3.30;2.10;;;25.20;90.30;;;;;;6249984;27;89166;-70
2023/07/14 12:38:47;;;;;;;2.85;2.30;;;25.20;90.30;;;;;;6244239;27;89039;-67
2023/07/14 12:41:52;;;;;;;2.45;2.20;;;25.20;90.30;;;;;;6253761;27;88342;-67
2023/07/14 12:44:55;;;;;;;2.13;1.90;;;25.20;90.30;;;;;;6256762;27;89001;-67
2023/07/14 12:48:01;;;;;;;3.45;2.45;;;25.20;90.30;;;;;;6254695;27;89356;-67
2023/07/14 12:51:15;;;;;;;2.88;2.20;;;25.20;90.30;;;;;;6251206;27;90039;-67
2023/07/14 12:54:24;;;;;;;2.40;2.00;;;25.20;90.30;;;;;;6240289;27;89438;-67
2023/07/14 12:57:26;;;;;;;4.03;2.10;;;25.20;90.20;;;;;;6252012;27;89035;-69
2023/07/14 13:00:32;;;;;;;3.20;2.08;;;25.20;90.20;;;;;;6245930;27;89041;-67
2023/07/14 13:03:39;;;;;;;2.55;2.00;;;25.20;90.60;;;;;;6248742;27;89644;-68
2023/07/14 13:06:42;;;;;;;3.65;2.50;;;25.20;90.70;;;;;;6248083;27;89088;-68
2023/07/14 13:09:44;;;;;;;3.00;2.47;;;25.20;90.80;;;;;;6249234;27;89096;-68
2023/07/14 13:12:47;;;;;;;3.33;2.50;;;25.20;90.70;;;;;;6255673;27;88369;-68
2023/07/14 13:15:51;;;;;;;2.78;2.40;;;25.30;90.80;;;;;;6247936;27;88261;-68
2023/07/14 13:18:58;;;;;;;5.50;3.17;;;25.30;90.80;;;;;;6246019;27;89403;-69
2023/07/14 13:22:02;;;;;;;2.75;2.30;;;25.20;90.90;;;;;;6233892;28;89898;-69
2023/07/14 13:25:06;;;;;;;3.38;2.38;;;25.30;90.90;;;;;;6235904;28;88414;-69
2023/07/14 13:28:27;;;;;;;2.80;2.25;;;25.20;90.90;;;;;;6252251;27;89450;-68
2023/07/14 13:31:38;;;;;;;2.33;2.10;;;25.30;90.90;;;;;;6247253;27;89004;-68
2023/07/14 13:34:44;;;;;;;2.95;2.35;;;25.30;91.00;;;;;;6239558;27;89107;-68
2023/07/14 13:37:57;;;;;;;2.30;2.10;;;25.30;91.00;;;;;;6243179;27;89203;-69
2023/07/14 13:41:08;;;;;;;3.15;2.58;;;25.30;90.90;;;;;;6242066;27;90103;-70
2023/07/14 13:44:36;;;;;;;3.33;2.22;;;25.30;90.80;;;;;;6233289;27;87464;-69
2023/07/14 13:47:45;;;;;;;2.55;2.30;;;25.30;90.90;;;;;;6213213;27;89042;-69
2023/07/14 13:50:48;;;;;;;2.58;2.20;;;25.30;90.90;;;;;;6252740;27;89085;-69
2023/07/14 13:53:50;;;;;;;2.65;2.30;;;25.40;91.00;;;;;;6250663;27;90443;-70
2023/07/14 13:56:53;;;;;;;2.97;2.28;;;25.30;90.90;;;;;;6240999;27;90970;-69
2023/07/14 13:59:55;;;;;;;2.80;2.22;;;25.40;91.00;;;;;;6241468;27;88551;-69
2023/07/14 14:03:00;;;;;;;3.80;2.35;;;25.40;91.00;;;;;;6237494;27;89035;-70
2023/07/14 14:06:03;;;;;;;2.85;2.50;;;25.30;91.00;;;;;;6249655;27;89153;-70
2023/07/14 14:09:18;;;;;;;2.25;2.05;;;25.40;91.00;;;;;;6248318;27;89132;-69
2023/07/14 14:12:21;;;;;;;2.38;2.10;;;25.40;90.90;;;;;;6254155;27;89380;-69
2023/07/14 14:15:26;;;;;;;2.78;2.25;;;25.40;90.90;;;;;;6246679;27;88305;-70
2023/07/14 14:18:31;;;;;;;2.53;2.30;;;25.40;90.90;;;;;;6255625;27;89008;-70
2023/07/14 14:21:35;;;;;;;2.42;2.22;;;25.40;90.90;;;;;;6244249;27;89583;-71
2023/07/14 14:24:37;;;;;;;2.35;2.15;;;25.40;90.90;;;;;;6252720;27;91399;-70
2023/07/14 14:27:40;;;;;;;2.55;2.35;;;25.40;90.90;;;;;;6243888;27;89232;-70
2023/07/14 14:30:44;;;;;;;2.42;2.20;;;25.40;90.90;;;;;;6254225;27;89120;-70
2023/07/14 14:33:46;;;;;;;3.03;2.40;;;25.40;91.00;;;;;;6251950;27;88980;-70
2023/07/14 14:36:49;;;;;;;2.35;2.15;;;25.40;91.00;;;;;;6248044;27;89583;-70
2023/07/14 14:39:52;;;;;;;2.78;2.50;;;25.40;91.00;;;;;;6255506;27;89079;-68
2023/07/14 14:42:58;;;;;;;2.47;2.28;;;25.40;91.00;;;;;;6258158;27;89390;-69
2023/07/14 14:46:02;;;;;;;2.65;2.15;;;25.40;91.00;;;;;;6257872;27;88535;-68
2023/07/14 14:49:12;;;;;;;2.45;2.25;;;25.40;91.00;;;;;;6250537;27;89470;-68
2023/07/14 14:52:15;;;;;;;2.47;2.28;;;25.50;91.10;;;;;;6248554;27;89530;-70
2023/07/14 14:55:20;;;;;;;2.70;2.20;;;25.50;91.20;;;;;;6246209;27;90020;-70
2023/07/14 14:58:26;;;;;;;2.40;2.20;;;25.40;91.20;;;;;;6256815;27;89084;-67
2023/07/14 15:01:33;;;;;;;2.22;2.03;;;25.50;91.40;;;;;;6246011;27;88810;-68
2023/07/14 15:04:35;;;;;;;3.40;2.42;;;25.50;91.40;;;;;;6253403;27;89207;-69
2023/07/14 15:07:38;;;;;;;2.35;2.15;;;25.50;91.20;;;;;;6245669;27;89171;-68
2023/07/14 15:10:41;;;;;;;2.92;2.28;;;25.50;91.10;;;;;;6243365;27;90326;-69
2023/07/14 15:13:43;;;;;;;2.80;2.50;;;25.50;91.10;;;;;;6250456;27;89013;-69
2023/07/14 15:16:45;;;;;;;4.75;2.75;;;25.50;91.10;;;;;;6254076;27;88353;-69
2023/07/14 15:19:47;;;;;;;2.63;2.33;;;25.40;91.00;;;;;;6252589;27;88986;-69
2023/07/14 15:22:52;;;;;;;2.60;2.15;;;25.50;91.00;;;;;;6252987;27;89184;-69
2023/07/14 15:25:56;;;;;;;2.63;2.33;;;25.50;90.90;;;;;;6250645;27;90441;-69
2023/07/14 15:28:58;;;;;;;2.35;2.15;;;25.50;91.00;;;;;;6246833;27;88926;-69
2023/07/14 15:32:00;;;;;;;2.88;2.40;;;25.50;91.10;;;;;;6256571;27;89016;-69
2023/07/14 15:35:02;;;;;;;3.47;2.63;;;25.50;91.10;;;;;;6249384;27;89064;-70
2023/07/14 15:38:07;;;;;;;3.13;2.40;;;25.50;91.20;;;;;;6252432;27;87999;-69
2023/07/14 15:41:15;;;;;;;2.53;2.10;;;25.50;91.10;;;;;;6241602;27;89074;-68
2023/07/14 15:44:21;;;;;;;3.67;2.33;;;25.50;91.20;;;;;;6256821;27;88933;-68
2023/07/14 15:47:23;;;;;;;2.40;2.20;;;25.50;91.20;;;;;;6247952;27;88221;-68
2023/07/14 15:50:26;;;;;;;2.63;2.33;;;25.50;91.20;;;;;;6252327;27;89498;-68
2023/07/14 15:53:37;;;;;;;2.67;2.40;;;25.50;91.10;;;;;;6249917;27;89433;-68
2023/07/14 15:56:39;;;;;;;2.53;2.30;;;25.50;91.10;;;;;;6253794;27;90221;-69
2023/07/14 15:59:41;;;;;;;2.42;2.00;;;25.50;91.10;;;;;;6241268;27;89043;-69
2023/07/14 16:02:45;;;;;;;2.67;2.20;;;25.50;91.10;;;;;;6244465;27;89272;-69
2023/07/14 16:05:48;;;;;;;2.20;2.00;;;25.50;91.00;;;;;;6248602;27;89564;-69